createdAt,value
2023-05-19T00:01:19.495Z,102933.19
2023-05-19T00:03:54.281Z,102939.38
2023-05-19T00:06:24.919Z,102935.84
2023-05-19T00:09:01.144Z,102940.25
2023-05-19T00:11:29.120Z,102937.59
2023-05-19T00:13:58.584Z,102935.78
2023-05-19T00:16:27.470Z,102945.56
2023-05-19T00:18:54.464Z,102935.78
2023-05-19T00:21:21.217Z,102927.78
2023-05-19T00:23:47.876Z,102926.03
2023-05-19T00:26:14.927Z,102924.25
2023-05-19T00:28:41.563Z,102920.69
2023-05-19T00:31:08.168Z,102925.97
2023-05-19T00:33:34.862Z,102926.91
2023-05-19T00:36:05.811Z,102932.22
2023-05-19T00:38:34.315Z,102927.78
2023-05-19T00:41:01.923Z,102920.66
2023-05-19T00:43:30.182Z,102920.66
2023-05-19T00:45:57.799Z,102919.75
2023-05-19T00:48:25.500Z,102920.63
2023-05-19T00:50:54.919Z,102923.28
2023-05-19T00:53:24.465Z,102914.44
2023-05-19T00:55:51.188Z,102927.69
2023-05-19T00:58:19.172Z,102923.25
2023-05-19T01:00:46.306Z,102919.72
2023-05-19T01:03:13.324Z,102923.22
2023-05-19T01:06:04.311Z,102917.00
2023-05-19T01:08:36.460Z,102914.38
2023-05-19T01:11:04.080Z,102917.00
2023-05-19T01:13:31.652Z,102929.41
2023-05-19T01:16:12.736Z,102922.28
2023-05-19T01:19:10.814Z,102926.69
2023-05-19T01:21:57.981Z,102925.81
2023-05-19T01:24:30.554Z,102924.94
2023-05-19T01:27:12.070Z,102925.81
2023-05-19T01:30:09.659Z,102916.94
2023-05-19T01:32:39.866Z,102914.25
2023-05-19T01:35:10.285Z,102911.59
2023-05-19T01:37:40.049Z,102914.25
2023-05-19T01:40:08.440Z,102906.25
2023-05-19T01:42:37.880Z,102902.69
2023-05-19T01:45:10.336Z,102906.25
2023-05-19T01:47:43.171Z,102898.25
2023-05-19T01:50:10.973Z,102902.66
2023-05-19T01:52:37.825Z,102906.19
2023-05-19T01:55:05.308Z,102907.06
2023-05-19T01:57:59.693Z,102912.38
2023-05-19T02:00:55.351Z,102898.16
2023-05-19T02:04:04.851Z,102888.41
2023-05-19T02:06:49.608Z,102896.38
2023-05-19T02:09:41.080Z,102899.88
2023-05-19T02:12:35.570Z,102900.75
2023-05-19T02:15:15.578Z,102903.41
2023-05-19T02:17:48.394Z,102896.28
2023-05-19T02:20:15.589Z,102898.91
2023-05-19T02:22:42.301Z,102902.44
2023-05-19T02:25:09.898Z,102891.81
2023-05-19T02:27:38.158Z,102890.00
2023-05-19T02:30:05.666Z,102894.41
2023-05-19T02:32:33.346Z,102889.09
2023-05-19T02:35:00.251Z,102889.09
2023-05-19T02:37:28.521Z,102881.09
2023-05-19T02:39:55.412Z,102882.88
2023-05-19T02:42:21.990Z,102885.50
2023-05-19T02:44:48.959Z,102876.66
2023-05-19T02:47:15.808Z,102878.41
2023-05-19T02:49:43.052Z,102869.50
2023-05-19T02:52:09.632Z,102865.06
2023-05-19T02:54:36.257Z,102877.44
2023-05-19T02:57:03.163Z,102868.53
2023-05-19T02:59:29.815Z,102877.41
2023-05-19T03:01:59.923Z,102862.38
2023-05-19T03:04:26.716Z,102872.09
2023-05-19T03:06:54.187Z,102867.63
2023-05-19T03:09:21.394Z,102863.19
2023-05-19T03:11:47.941Z,102864.91
2023-05-19T03:14:14.569Z,102864.91
2023-05-19T03:16:42.249Z,102868.41
2023-05-19T03:19:09.752Z,102866.59
2023-05-19T03:21:36.617Z,102863.97
2023-05-19T03:24:03.459Z,102871.03
2023-05-19T03:26:30.000Z,102867.44
2023-05-19T03:28:56.619Z,102865.66
2023-05-19T03:31:23.222Z,102872.72
2023-05-19T03:33:52.132Z,102870.91
2023-05-19T03:36:18.770Z,102867.31
2023-05-19T03:38:45.365Z,102869.94
2023-05-19T03:41:11.965Z,102866.41
2023-05-19T03:43:38.563Z,102860.22
2023-05-19T03:46:05.392Z,102858.44
2023-05-19T03:48:32.073Z,102853.97
2023-05-19T03:50:58.812Z,102855.75
2023-05-19T03:53:26.221Z,102861.94
2023-05-19T03:55:52.921Z,102868.13
2023-05-19T03:58:19.563Z,102862.81
2023-05-19T04:00:46.175Z,102863.66
2023-05-19T04:03:12.950Z,102861.91
2023-05-19T04:05:39.631Z,102864.53
2023-05-19T04:08:06.344Z,102871.59
2023-05-19T04:10:33.168Z,102864.50
2023-05-19T04:12:59.871Z,102870.72
2023-05-19T04:15:26.589Z,102867.16
2023-05-19T04:17:53.205Z,102868.97
2023-05-19T04:20:19.876Z,102866.31
2023-05-19T04:22:46.462Z,102861.91
2023-05-19T04:25:13.162Z,102864.59
2023-05-19T04:27:39.775Z,102864.63
2023-05-19T04:30:06.925Z,102873.47
2023-05-19T04:32:33.600Z,102871.75
2023-05-19T04:35:00.291Z,102868.19
2023-05-19T04:37:26.993Z,102865.56
2023-05-19T04:39:54.155Z,102867.38
2023-05-19T04:42:20.809Z,102877.13
2023-05-19T04:44:49.326Z,102874.50
2023-05-19T04:47:16.229Z,102866.53
2023-05-19T04:49:42.919Z,102871.03
2023-05-19T04:52:12.060Z,102881.66
2023-05-19T04:54:40.073Z,102879.03
2023-05-19T04:57:06.810Z,102878.19
2023-05-19T04:59:33.552Z,102868.50
2023-05-19T05:02:00.290Z,102880.94
2023-05-19T05:04:26.916Z,102878.31
2023-05-19T05:06:53.501Z,102878.34
2023-05-19T05:09:20.095Z,102876.59
2023-05-19T05:11:46.936Z,102879.31
2023-05-19T05:14:13.726Z,102881.03
2023-05-19T05:16:40.842Z,102882.88
2023-05-19T05:19:07.870Z,102874.94
2023-05-19T05:21:34.984Z,102882.06
2023-05-19T05:24:01.991Z,102879.44
2023-05-19T05:26:31.543Z,102879.44
2023-05-19T05:28:58.112Z,102886.59
2023-05-19T05:31:24.707Z,102874.22
2023-05-19T05:33:51.376Z,102881.31
2023-05-19T05:36:17.942Z,102876.91
2023-05-19T05:38:44.529Z,102865.44
2023-05-19T05:41:11.183Z,102873.41
2023-05-19T05:43:37.829Z,102872.59
2023-05-19T05:46:04.701Z,102881.44
2023-05-19T05:48:31.488Z,102881.47
2023-05-19T05:50:59.583Z,102879.75
2023-05-19T05:53:32.173Z,102882.50
2023-05-19T05:55:59.068Z,102883.44
2023-05-19T05:58:25.834Z,102885.28
2023-05-19T06:00:53.460Z,102874.63
2023-05-19T06:03:24.133Z,102877.22
2023-05-19T06:05:50.981Z,102868.28
2023-05-19T06:08:17.911Z,102873.53
2023-05-19T06:10:46.578Z,102863.59
2023-05-19T06:13:16.224Z,102875.88
2023-05-19T06:15:42.862Z,102871.16
2023-05-19T06:18:09.479Z,102873.53
2023-05-19T06:20:36.211Z,102872.34
2023-05-19T06:23:03.170Z,102874.66
2023-05-19T06:25:30.511Z,102866.38
2023-05-19T06:27:57.389Z,102864.31
2023-05-19T06:30:24.084Z,102854.13
2023-05-19T06:32:50.877Z,102851.88
2023-05-19T06:35:17.557Z,102857.72
2023-05-19T06:37:44.153Z,102858.88
2023-05-19T06:40:11.435Z,102854.56
2023-05-19T06:42:38.058Z,102858.41
2023-05-19T06:45:12.323Z,102859.44
2023-05-19T06:47:41.381Z,102856.94
2023-05-19T06:50:11.094Z,102855.31
2023-05-19T06:52:38.052Z,102857.34
2023-05-19T06:55:05.077Z,102851.13
2023-05-19T06:57:31.613Z,102847.78
2023-05-19T06:59:58.151Z,102850.75
2023-05-19T07:02:24.786Z,102851.84
2023-05-19T07:04:52.739Z,102852.28
2023-05-19T07:07:27.186Z,102853.53
2023-05-19T07:09:53.981Z,102855.66
2023-05-19T07:12:20.624Z,102846.75
2023-05-19T07:14:50.121Z,102852.41
2023-05-19T07:17:16.777Z,102845.16
2023-05-19T07:19:43.374Z,102841.94
2023-05-19T07:22:10.050Z,102844.25
2023-05-19T07:24:36.667Z,102837.94
2023-05-19T07:27:03.585Z,102846.75
2023-05-19T07:29:30.239Z,102838.91
2023-05-19T07:31:57.977Z,102845.28
2023-05-19T07:34:27.295Z,102841.38
2023-05-19T07:36:54.053Z,102844.34
2023-05-19T07:39:23.985Z,102846.09
2023-05-19T07:41:54.203Z,102849.25
2023-05-19T07:44:31.157Z,102849.06
2023-05-19T07:47:12.648Z,102841.22
2023-05-19T07:49:41.433Z,102845.34
2023-05-19T07:52:08.087Z,102835.53
2023-05-19T07:54:34.955Z,102838.59
2023-05-19T07:57:04.705Z,102830.75
2023-05-19T07:59:40.030Z,102828.09
2023-05-19T08:02:07.486Z,102828.19
2023-05-19T08:05:14.471Z,102835.28
2023-05-19T08:07:31.438Z,102824.22
2023-05-19T08:09:58.175Z,102809.47
2023-05-19T08:12:24.781Z,102818.06
2023-05-19T08:14:52.342Z,102815.88
2023-05-19T08:17:19.110Z,102800.53
2023-05-19T08:19:45.864Z,102812.66
2023-05-19T08:22:12.454Z,102811.91
2023-05-19T08:24:46.182Z,102806.19
2023-05-19T08:27:16.616Z,102807.84
2023-05-19T08:29:43.284Z,102804.34
2023-05-19T08:32:25.557Z,102792.53
2023-05-19T08:34:52.273Z,102794.94
2023-05-19T08:40:17.578Z,102790.06
2023-05-19T08:42:45.732Z,102785.44
2023-05-19T08:45:13.120Z,102785.03
2023-05-19T08:47:41.716Z,102777.25
2023-05-19T08:50:11.404Z,102780.66
2023-05-19T08:53:01.551Z,102775.06
2023-05-19T08:55:42.263Z,102770.50
2023-05-19T08:58:10.549Z,102772.56
2023-05-19T09:00:37.845Z,102761.72
2023-05-19T09:03:17.708Z,102766.41
2023-05-19T09:05:49.882Z,102766.38
2023-05-19T09:08:16.562Z,102768.91
2023-05-19T09:10:43.270Z,102761.88
2023-05-19T09:13:10.153Z,102762.28
2023-05-19T09:15:39.151Z,102763.69
2023-05-19T09:18:13.596Z,102759.88
2023-05-19T09:20:41.945Z,102755.81
2023-05-19T09:23:16.724Z,102753.00
2023-05-19T09:25:53.895Z,102763.75
2023-05-19T09:28:29.488Z,102759.25
2023-05-19T09:31:04.986Z,102756.66
2023-05-19T09:33:35.477Z,102754.63
2023-05-19T09:36:03.581Z,102753.34
2023-05-19T09:38:30.176Z,102754.81
2023-05-19T09:40:59.098Z,102747.22
2023-05-19T09:43:35.424Z,102747.50
2023-05-19T09:46:06.183Z,102746.59
2023-05-19T09:48:34.568Z,102750.75
2023-05-19T09:51:02.369Z,102748.34
2023-05-19T09:53:32.595Z,102743.47
2023-05-19T09:56:02.065Z,102741.91
2023-05-19T09:58:34.586Z,102745.19
2023-05-19T10:01:02.094Z,102742.72
2023-05-19T10:03:29.837Z,102741.72
2023-05-19T10:05:57.272Z,102748.25
2023-05-19T10:08:26.553Z,102747.56
2023-05-19T10:10:53.899Z,102739.88
2023-05-19T10:13:22.524Z,102741.84
2023-05-19T10:15:58.302Z,102732.88
2023-05-19T10:18:27.683Z,102734.31
2023-05-19T10:20:54.725Z,102732.03
2023-05-19T10:23:22.213Z,102728.31
2023-05-19T10:25:51.828Z,102720.13
2023-05-19T10:28:23.613Z,102718.53
2023-05-19T10:30:56.563Z,102720.25
2023-05-19T10:33:53.332Z,102711.53
2023-05-19T10:36:47.637Z,102715.16
2023-05-19T10:39:35.525Z,102711.34
2023-05-19T10:42:13.750Z,102713.41
2023-05-19T10:44:58.322Z,102710.16
2023-05-19T10:47:26.194Z,102707.31
2023-05-19T10:49:54.398Z,102709.84
2023-05-19T10:52:23.310Z,102698.69
2023-05-19T10:54:50.017Z,102706.19
2023-05-19T10:57:17.824Z,102700.34
2023-05-19T10:59:44.763Z,102705.41
2023-05-19T11:02:37.069Z,102701.03
2023-05-19T11:05:18.404Z,102700.47
2023-05-19T11:08:05.215Z,102699.19
2023-05-19T11:10:32.298Z,102696.75
2023-05-19T11:12:59.027Z,102687.47
2023-05-19T11:15:27.666Z,102695.97
2023-05-19T11:17:54.697Z,102694.81
2023-05-19T11:20:29.436Z,102689.44
2023-05-19T11:23:07.063Z,102698.00
2023-05-19T11:25:49.166Z,102693.53
2023-05-19T11:28:19.550Z,102684.00
2023-05-19T11:30:52.375Z,102689.25
2023-05-19T11:33:21.028Z,102687.56
2023-05-19T11:35:53.620Z,102683.19
2023-05-19T11:38:21.715Z,102682.84
2023-05-19T11:40:49.704Z,102682.50
2023-05-19T11:43:16.628Z,102677.75
2023-05-19T11:45:43.261Z,102675.00
2023-05-19T11:48:13.017Z,102683.09
2023-05-19T11:50:44.020Z,102670.06
2023-05-19T11:53:15.035Z,102669.88
2023-05-19T11:55:49.050Z,102665.13
2023-05-19T11:58:16.703Z,102664.44
2023-05-19T12:00:47.868Z,102659.13
2023-05-19T12:03:15.488Z,102672.44
2023-05-19T12:05:48.810Z,102668.41
2023-05-19T12:08:18.935Z,102674.84
2023-05-19T12:10:50.364Z,102669.91
2023-05-19T12:13:17.077Z,102665.94
2023-05-19T12:15:43.832Z,102660.28
2023-05-19T12:18:10.474Z,102667.66
2023-05-19T12:20:37.725Z,102668.66
2023-05-19T12:26:13.717Z,102666.50
2023-05-19T12:28:41.406Z,102661.44
2023-05-19T12:31:08.321Z,102663.44
2023-05-19T12:33:35.944Z,102652.03
2023-05-19T12:36:02.982Z,102659.13
2023-05-19T12:38:29.671Z,102638.94
2023-05-19T12:40:59.889Z,102646.13
2023-05-19T12:43:26.787Z,102640.09
2023-05-19T12:45:54.028Z,102635.78
2023-05-19T12:48:23.673Z,102637.84
2023-05-19T12:50:54.081Z,102634.50
2023-05-19T12:53:20.657Z,102633.38
2023-05-19T12:55:47.387Z,102633.47
2023-05-19T12:58:15.820Z,102632.91
2023-05-19T13:00:47.327Z,102634.63
2023-05-19T13:03:19.635Z,102633.69
2023-05-19T13:05:49.344Z,102629.41
2023-05-19T13:08:21.375Z,102627.84
2023-05-19T13:10:49.484Z,102636.22
2023-05-19T13:13:17.162Z,102623.63
2023-05-19T13:15:49.098Z,102625.81
2023-05-19T13:18:16.663Z,102622.28
2023-05-19T13:20:46.411Z,102628.72
2023-05-19T13:23:14.274Z,102628.97
2023-05-19T13:25:41.537Z,102630.97
2023-05-19T13:28:09.179Z,102621.28
2023-05-19T13:30:38.939Z,102618.44
2023-05-19T13:33:06.125Z,102617.41
2023-05-19T13:35:37.193Z,102606.81
2023-05-19T13:38:09.462Z,102606.97
2023-05-19T13:40:36.654Z,102605.25
2023-05-19T13:43:04.340Z,102604.66
2023-05-19T13:45:31.035Z,102592.25
2023-05-19T13:47:57.649Z,102594.44
2023-05-19T13:50:24.278Z,102590.97
2023-05-19T13:52:50.878Z,102586.97
2023-05-19T13:56:11.373Z,102587.66
2023-05-19T13:58:40.197Z,102583.31
2023-05-19T14:01:06.792Z,102580.78
2023-05-19T14:03:33.492Z,102583.38
2023-05-19T14:06:00.149Z,102580.31
2023-05-19T14:08:29.577Z,102591.94
2023-05-19T14:10:59.115Z,102582.75
2023-05-19T14:13:34.438Z,102579.09
2023-05-19T14:16:02.936Z,102574.81
2023-05-19T14:18:29.587Z,102579.44
2023-05-19T14:20:56.344Z,102581.44
2023-05-19T14:23:22.967Z,102574.53
2023-05-19T14:25:49.566Z,102570.81
2023-05-19T14:28:26.683Z,102571.34
2023-05-19T14:30:57.157Z,102565.66
2023-05-19T14:33:39.242Z,102571.88
2023-05-19T14:36:06.436Z,102569.31
2023-05-19T14:38:33.018Z,102564.78
2023-05-19T14:41:00.616Z,102569.47
2023-05-19T14:43:27.185Z,102562.16
2023-05-19T14:45:53.857Z,102562.41
2023-05-19T14:48:20.514Z,102557.78
2023-05-19T14:50:48.259Z,102557.28
2023-05-19T14:53:16.246Z,102563.56
2023-05-19T14:55:43.362Z,102550.97
2023-05-19T14:58:23.661Z,102552.53
2023-05-19T15:00:54.614Z,102554.22
2023-05-19T15:03:23.084Z,102550.44
2023-05-19T15:05:49.765Z,102551.38
2023-05-19T15:08:16.596Z,102553.22
2023-05-19T15:10:43.280Z,102550.38
2023-05-19T15:13:10.314Z,102553.22
2023-05-19T15:15:36.891Z,102546.16
2023-05-19T15:18:03.592Z,102547.91
2023-05-19T15:20:30.206Z,102545.34
2023-05-19T15:22:56.777Z,102541.69
2023-05-19T15:25:23.327Z,102538.09
2023-05-19T15:27:49.877Z,102543.59
2023-05-19T15:30:16.528Z,102547.19
2023-05-19T15:32:43.124Z,102541.69
2023-05-19T15:35:09.957Z,102546.44
2023-05-19T15:37:36.544Z,102544.00
2023-05-19T15:40:03.558Z,102537.69
2023-05-19T15:42:32.482Z,102545.56
2023-05-19T15:44:59.069Z,102540.16
2023-05-19T15:47:25.931Z,102543.19
2023-05-19T15:49:52.522Z,102537.84
2023-05-19T15:52:19.142Z,102533.44
2023-05-19T15:54:45.932Z,102532.50
2023-05-19T15:57:13.559Z,102524.38
2023-05-19T15:59:40.285Z,102528.78
2023-05-19T16:02:08.328Z,102522.34
2023-05-19T16:04:35.067Z,102524.97
2023-05-19T16:07:01.667Z,102524.09
2023-05-19T16:09:28.316Z,102518.16
2023-05-19T16:11:54.900Z,102523.16
2023-05-19T16:14:21.557Z,102510.81
2023-05-19T16:16:48.227Z,102506.59
2023-05-19T16:19:14.965Z,102504.81
2023-05-19T16:21:41.578Z,102507.53
2023-05-19T16:24:08.221Z,102505.88
2023-05-19T16:26:34.835Z,102502.19
2023-05-19T16:29:01.480Z,102503.00
2023-05-19T16:31:28.127Z,102495.75
2023-05-19T16:33:54.745Z,102493.06
2023-05-19T16:36:22.756Z,102501.91
2023-05-19T16:38:49.396Z,102501.97
2023-05-19T16:41:15.984Z,102496.72
2023-05-19T16:43:42.575Z,102500.69
2023-05-19T16:46:11.965Z,102499.31
2023-05-19T16:48:38.726Z,102500.41
2023-05-19T16:51:05.349Z,102506.06
2023-05-19T16:53:32.109Z,102505.44
2023-05-19T16:56:01.870Z,102503.56
2023-05-19T16:58:29.608Z,102505.25
2023-05-19T17:00:57.826Z,102499.69
2023-05-19T17:03:24.836Z,102505.75
2023-05-19T17:05:52.406Z,102502.09
2023-05-19T17:08:21.482Z,102507.50
2023-05-19T17:10:48.209Z,102503.41
2023-05-19T17:13:14.790Z,102501.72
2023-05-19T17:15:43.291Z,102503.72
2023-05-19T17:18:11.393Z,102498.84
2023-05-19T17:20:38.053Z,102509.00
2023-05-19T17:23:04.602Z,102506.38
2023-05-19T17:25:33.592Z,102503.03
2023-05-19T17:28:00.422Z,102507.38
2023-05-19T17:30:27.122Z,102500.16
2023-05-19T17:32:53.697Z,102510.91
2023-05-19T17:35:20.388Z,102498.28
2023-05-19T17:37:47.034Z,102504.69
2023-05-19T17:40:13.781Z,102510.16
2023-05-19T17:42:40.388Z,102512.41
2023-05-19T17:45:07.617Z,102513.59
2023-05-19T17:47:34.553Z,102513.81
2023-05-19T17:50:01.235Z,102508.56
2023-05-19T17:52:28.199Z,102512.28
2023-05-19T17:54:55.172Z,102516.00
2023-05-19T17:57:25.392Z,102512.47
2023-05-19T17:59:52.295Z,102511.59
2023-05-19T18:02:19.200Z,102515.41
2023-05-19T18:04:46.183Z,102514.66
2023-05-19T18:07:14.119Z,102520.19
2023-05-19T18:09:46.046Z,102519.78
2023-05-19T18:12:12.681Z,102525.34
2023-05-19T18:14:39.882Z,102518.50
2023-05-19T18:17:06.533Z,102527.81
2023-05-19T18:19:33.077Z,102524.50
2023-05-19T18:21:59.728Z,102530.28
2023-05-19T18:24:26.307Z,102527.81
2023-05-19T18:26:52.912Z,102533.66
2023-05-19T18:29:19.604Z,102531.28
2023-05-19T18:31:46.253Z,102537.03
2023-05-19T18:34:13.897Z,102531.91
2023-05-19T18:36:41.356Z,102534.75
2023-05-19T18:39:07.906Z,102530.50
2023-05-19T18:41:34.561Z,102546.84
2023-05-19T18:44:01.151Z,102546.03
2023-05-19T18:46:27.911Z,102547.13
2023-05-19T18:48:54.630Z,102550.09
2023-05-19T18:51:21.701Z,102552.13
2023-05-19T18:53:50.110Z,102549.69
2023-05-19T18:56:24.516Z,102548.97
2023-05-19T18:58:51.118Z,102559.00
2023-05-19T19:01:18.113Z,102548.53
2023-05-19T19:03:46.704Z,102556.81
2023-05-19T19:06:13.285Z,102555.22
2023-05-19T19:08:39.855Z,102564.47
2023-05-19T19:11:10.000Z,102557.59
2023-05-19T19:13:37.587Z,102561.25
2023-05-19T19:16:04.302Z,102566.84
2023-05-19T19:18:31.048Z,102567.09
2023-05-19T19:20:58.716Z,102568.13
2023-05-19T19:23:25.439Z,102567.50
2023-05-19T19:25:53.481Z,102569.47
2023-05-19T19:28:20.070Z,102570.63
2023-05-19T19:30:46.750Z,102575.28
2023-05-19T19:33:13.401Z,102574.50
2023-05-19T19:35:40.551Z,102582.72
2023-05-19T19:38:07.145Z,102581.94
2023-05-19T19:40:33.966Z,102590.28
2023-05-19T19:43:00.793Z,102592.31
2023-05-19T19:45:27.365Z,102593.50
2023-05-19T19:47:54.076Z,102597.28
2023-05-19T19:50:21.913Z,102601.06
2023-05-19T19:52:48.568Z,102599.41
2023-05-19T19:55:15.256Z,102603.16
2023-05-19T19:57:44.806Z,102607.88
2023-05-19T20:00:12.016Z,102608.19
2023-05-19T20:02:48.293Z,102606.63
2023-05-19T20:05:22.361Z,102614.03
2023-05-19T20:07:48.917Z,102608.81
2023-05-19T20:10:15.848Z,102620.63
2023-05-19T20:12:43.394Z,102624.44
2023-05-19T20:15:10.275Z,102624.69
2023-05-19T20:17:37.398Z,102622.28
2023-05-19T20:20:09.844Z,102622.44
2023-05-19T20:22:36.795Z,102628.00
2023-05-19T20:25:03.555Z,102632.78
2023-05-19T20:27:30.223Z,102635.53
2023-05-19T20:29:56.827Z,102637.34
2023-05-19T20:32:23.504Z,102633.78
2023-05-19T20:34:50.147Z,102633.81
2023-05-19T20:37:17.374Z,102632.03
2023-05-19T20:39:43.926Z,102637.41
2023-05-19T20:42:11.193Z,102642.78
2023-05-19T20:44:37.836Z,102650.13
2023-05-19T20:47:04.765Z,102651.03
2023-05-19T20:49:31.365Z,102650.19
2023-05-19T20:51:57.988Z,102652.06
2023-05-19T20:54:24.675Z,102648.50
2023-05-19T20:56:51.968Z,102655.72
2023-05-19T20:59:18.606Z,102650.34
2023-05-19T21:01:46.231Z,102661.16
2023-05-19T21:04:13.031Z,102656.75
2023-05-19T21:06:40.863Z,102651.47
2023-05-19T21:09:07.417Z,102648.97
2023-05-19T21:11:34.298Z,102655.31
2023-05-19T21:14:04.120Z,102655.41
2023-05-19T21:16:31.244Z,102657.25
2023-05-19T21:18:57.942Z,102652.88
2023-05-19T21:21:24.798Z,102657.41
2023-05-19T21:23:51.821Z,102664.59
2023-05-19T21:26:18.475Z,102670.97
2023-05-19T21:28:45.041Z,102667.47
2023-05-19T21:31:11.591Z,102669.47
2023-05-19T21:33:38.143Z,102674.94
2023-05-19T21:36:04.960Z,102676.75
2023-05-19T21:38:31.623Z,102667.81
2023-05-19T21:40:58.175Z,102667.06
2023-05-19T21:43:24.799Z,102673.38
2023-05-19T21:45:51.467Z,102677.91
2023-05-19T21:48:18.278Z,102683.44
2023-05-19T21:50:45.003Z,102676.34
2023-05-19T21:53:11.549Z,102684.50
2023-05-19T21:55:39.131Z,102681.84
2023-05-19T21:58:05.747Z,102681.94
2023-05-19T22:00:32.540Z,102680.19
2023-05-19T22:02:59.368Z,102677.56
2023-05-19T22:05:26.020Z,102681.28
2023-05-19T22:07:52.597Z,102689.41
2023-05-19T22:10:19.262Z,102684.13
2023-05-19T22:12:45.935Z,102685.06
2023-05-19T22:15:13.493Z,102686.00
2023-05-19T22:17:40.451Z,102685.22
2023-05-19T22:20:08.143Z,102686.25
2023-05-19T22:22:35.287Z,102682.84
2023-05-19T22:25:02.572Z,102683.81
2023-05-19T22:27:29.213Z,102682.97
2023-05-19T22:29:56.217Z,102692.84
2023-05-19T22:32:22.869Z,102691.13
2023-05-19T22:34:49.609Z,102694.75
2023-05-19T22:37:16.269Z,102692.09
2023-05-19T22:39:42.821Z,102688.72
2023-05-19T22:42:09.470Z,102684.31
2023-05-19T22:44:36.043Z,102684.38
2023-05-19T22:47:02.639Z,102686.22
2023-05-19T22:49:29.969Z,102688.06
2023-05-19T22:51:56.541Z,102693.47
2023-05-19T22:54:23.186Z,102684.63
2023-05-19T22:56:49.849Z,102689.16
2023-05-19T22:59:18.966Z,102694.53
2023-05-19T23:01:46.631Z,102690.09
2023-05-19T23:04:13.786Z,102686.69
2023-05-19T23:06:40.472Z,102698.34
2023-05-19T23:09:07.063Z,102694.91
2023-05-19T23:11:34.636Z,102694.97
2023-05-19T23:14:01.884Z,102695.09
2023-05-19T23:16:28.531Z,102684.44
2023-05-19T23:18:55.218Z,102681.91
2023-05-19T23:21:21.850Z,102689.97
2023-05-19T23:23:48.416Z,102685.59
2023-05-19T23:26:15.028Z,102684.75
2023-05-19T23:28:42.637Z,102694.66
2023-05-19T23:31:09.824Z,102690.25
2023-05-19T23:33:36.541Z,102686.75
2023-05-19T23:36:08.691Z,102681.44
2023-05-19T23:38:38.178Z,102683.34
2023-05-19T23:41:05.189Z,102685.13
2023-05-19T23:43:32.371Z,102681.66
2023-05-19T23:45:59.612Z,102681.69
2023-05-19T23:48:28.991Z,102682.66
2023-05-19T23:50:55.750Z,102680.91
2023-05-19T23:53:22.404Z,102677.38
2023-05-19T23:55:48.990Z,102678.38
2023-05-19T23:58:15.975Z,102674.84
